עמוד ראשי
METAR-TAF:

METAR-TAF

שדות תעופה :

Oban, סקוטלנד

קו רוחב: 56-27-49N, קו אורך: 5-24-00W, גובה: 7מטר

תצפית מזג אוויר נוכחית

הדו"ח נערך לפני 21דקות, בשעה 15:50 UTC
רוח 14קשר מכיוון מערב
טמפרטורת 8 צלסיוס
לחות 76%
לחץ 1011 hPa
ראות 10 קילומטר או יותר
עננים פזורים בגובה 2400רגל
ממטרים במרחב,

METAR: EGEO 131550Z 27014KT 9999 VCSH SCT024 08/04 Q1011

זמן: 17:11 (16:11 UTC)

תחזית

הדו"ח נערך לפני 2 שעות ו 11דקות, בשעה 14:00 UTC
תחזית בתוקף מ 13 ב 15 UTC עד 13 ב 17 UTC
רוח 25קשר מכיוון מערב עם משבים עד 35קשר
ראות 10 קילומטר או יותר
מעט עננים בגובה 3000רגל
זמנית מ -
13 ב 15 UTC עד 13 ב 17 UTC
ראות: 6000מטר
עננים בינוניים בגובה 1400רגל
ממטרי גשם,

TAF: EGEO 131400Z 1315/1317 27025G35KT 9999 FEW030 TEMPO 1315/1317 6000 SHRA BKN014

תצפיות ותחזיות מזג אוויר לגבי יותר מ- 4,000 שדות תעופה ברחבי העולם. דוחות METAR ו- TAF.

התחנות הזמינות מסומנות בנקודות צהובות ואדומות על גבי המפה.

העבר את העכבר לנקודה הצבעונית על מנת לראות את שם התחנה.

לאחר מכן, לחץ כדי לראות את תוכן ואת תחזיות מזג האוויר.

כדי לשנות את המפה: לחץ על הכפתורים הירוקים עם הפלוס השחור כדי להתקרב; על הכפתור הירוק עם המקף כדי להתרחק; או בחיצים הירוקים למפות סמוכות.


METAR-TAF: